Time;durP1;ratioP1;P1;durP2;ratioP2;P2;SDS_P1;SDS_P2;PMS_P1;PMS_P2;Temp;Humidity;BMP_temperature;BMP_pressure;BME280_temperature;BME280_humidity;BME280_pressure;Samples;Min_cycle;Max_cycle;Signal;HPM_P1;HPM_P2
2023/01/05 00:01:13;;;;;;;;;1.00;1.00;;;;;-147.17;100.00;-15917.19;4968037;28;53109;-71
2023/01/05 00:03:39;;;;;;;;;1.33;1.00;;;;;-147.17;100.00;-15917.19;4980055;28;51770;-70
2023/01/05 00:06:09;;;;;;;;;0.00;0.00;;;;;-147.17;100.00;-15917.19;4978894;28;51166;-70
2023/01/05 00:08:35;;;;;;;;;0.00;0.00;;;;;-147.17;100.00;-15917.19;4982731;28;51333;-70
2023/01/05 00:22:29;;;;;;;;;1.00;1.00;;;;;-147.17;100.00;-15917.19;4990429;28;51614;-69
2023/01/05 00:25:00;;;;;;;;;0.00;0.00;;;;;-147.17;100.00;-15917.19;4985115;28;51119;-70
2023/01/05 00:27:26;;;;;;;;;0.67;0.00;;;;;-147.17;100.00;-15917.19;4993487;28;51186;-69
2023/01/05 00:29:52;;;;;;;;;0.00;0.00;;;;;-147.17;100.00;-15917.19;4985442;28;51300;-69
2023/01/05 00:32:17;;;;;;;;;3.00;2.00;;;;;-147.17;100.00;-15917.19;4978217;28;51996;-71
2023/01/05 00:34:42;;;;;;;;;0.00;0.00;;;;;-147.17;100.00;-15917.19;4971860;28;51298;-70
2023/01/05 00:37:08;;;;;;;;;1.33;1.33;;;;;-147.17;100.00;-15917.19;4977066;28;51208;-71
2023/01/05 00:39:33;;;;;;;;;0.00;0.00;;;;;-147.17;100.00;-15917.19;4985471;28;50876;-71
2023/01/05 00:41:59;;;;;;;;;0.00;0.00;;;;;-147.17;100.00;-15917.19;4979190;28;51794;-69
2023/01/05 00:44:24;;;;;;;;;0.00;0.00;;;;;-147.17;100.00;-15917.19;4983503;28;51015;-71
2023/01/05 00:46:49;;;;;;;;;0.00;0.00;;;;;-147.17;100.00;-15917.19;4977167;28;51267;-71
2023/01/05 00:49:15;;;;;;;;;1.00;1.00;;;;;-147.17;100.00;-15917.19;4983667;28;51130;-71
2023/01/05 00:51:40;;;;;;;;;1.00;1.00;;;;;-147.17;100.00;-15917.19;4976086;28;51280;-70
2023/01/05 00:54:06;;;;;;;;;0.00;0.00;;;;;-147.17;100.00;-15917.19;4986542;28;51236;-69
2023/01/05 00:56:31;;;;;;;;;0.00;0.00;;;;;-147.17;100.00;-15917.19;4979360;28;51438;-70
2023/01/05 00:58:56;;;;;;;;;0.00;0.00;;;;;-147.17;100.00;-15917.19;4988369;28;51336;-69
2023/01/05 01:01:22;;;;;;;;;0.67;0.00;;;;;-147.17;100.00;-15917.19;4974281;28;51985;-70
2023/01/05 01:03:47;;;;;;;;;0.00;0.00;;;;;-147.17;100.00;-15917.19;4972897;28;51183;-71
2023/01/05 01:06:13;;;;;;;;;1.00;1.00;;;;;-147.17;100.00;-15917.19;4979188;28;51546;-70
2023/01/05 01:08:38;;;;;;;;;0.00;0.00;;;;;-147.17;100.00;-15917.19;4984105;28;51261;-70
2023/01/05 01:11:08;;;;;;;;;1.00;1.00;;;;;-147.17;100.00;-15917.19;4983457;28;51121;-70
2023/01/05 01:13:33;;;;;;;;;1.00;1.00;;;;;-147.17;100.00;-15917.19;4988620;28;51225;-70
2023/01/05 01:16:14;;;;;;;;;0.00;0.00;;;;;-147.17;100.00;-15917.19;4977592;28;51036;-70
2023/01/05 01:18:40;;;;;;;;;0.00;0.00;;;;;-147.17;100.00;-15917.19;4976847;28;51325;-70
2023/01/05 01:21:05;;;;;;;;;0.00;0.00;;;;;-147.17;100.00;-15917.19;4979352;28;51828;-70
2023/01/05 01:23:32;;;;;;;;;1.00;1.00;;;;;-147.17;100.00;-15917.19;4988415;28;51100;-71
2023/01/05 01:26:02;;;;;;;;;3.00;2.00;;;;;-147.17;100.00;-15917.19;4985032;28;51740;-70
2023/01/05 01:28:27;;;;;;;;;3.00;3.00;;;;;-147.17;100.00;-15917.19;4982860;28;50998;-69
2023/01/05 01:30:53;;;;;;;;;2.00;1.00;;;;;-147.17;100.00;-15917.19;4981787;28;51735;-70
2023/01/05 01:33:18;;;;;;;;;0.00;0.00;;;;;-147.17;100.00;-15917.19;4979253;28;51176;-71
2023/01/05 01:35:43;;;;;;;;;1.00;1.00;;;;;-147.17;100.00;-15917.19;4980295;28;51401;-70
2023/01/05 01:38:09;;;;;;;;;1.00;1.00;;;;;-147.17;100.00;-15917.19;4984679;28;51838;-69
2023/01/05 01:40:42;;;;;;;;;8.00;7.67;;;;;-147.17;100.00;-15917.19;4975941;28;51801;-69
2023/01/05 01:43:12;;;;;;;;;3.00;2.00;;;;;-147.17;100.00;-15917.19;4988761;28;51148;-74
2023/01/05 01:45:38;;;;;;;;;1.00;1.00;;;;;-147.17;100.00;-15917.19;4972158;28;50541;-74
2023/01/05 01:48:04;;;;;;;;;1.00;0.00;;;;;-147.17;100.00;-15917.19;4988049;28;50483;-73
2023/01/05 01:50:37;;;;;;;;;1.00;0.67;;;;;-147.17;100.00;-15917.19;4986878;28;51946;-77
2023/01/05 01:53:06;;;;;;;;;0.00;0.00;;;;;-147.17;100.00;-15917.19;4992714;28;51124;-73
2023/01/05 01:55:33;;;;;;;;;0.00;0.00;;;;;-147.17;100.00;-15917.19;4989287;28;51462;-74
2023/01/05 01:58:02;;;;;;;;;1.00;1.00;;;;;-147.17;100.00;-15917.19;4969595;28;50726;-76
2023/01/05 02:00:28;;;;;;;;;1.00;1.00;;;;;-147.17;100.00;-15917.19;4990995;28;51113;-76
2023/01/05 02:02:55;;;;;;;;;0.33;0.33;;;;;-147.17;100.00;-15917.19;4995862;28;51106;-77
2023/01/05 02:05:24;;;;;;;;;2.00;2.00;;;;;-147.17;100.00;-15917.19;4994178;28;51242;-74
2023/01/05 02:07:49;;;;;;;;;1.00;0.67;;;;;-147.17;100.00;-15917.19;4989742;28;51067;-74
2023/01/05 02:10:18;;;;;;;;;0.33;0.33;;;;;-147.17;100.00;-15917.19;4990535;28;51127;-76
2023/01/05 02:13:17;;;;;;;;;1.33;0.00;;;;;-147.17;100.00;-15917.19;4990235;28;51192;-74
2023/01/05 02:16:20;;;;;;;;;0.00;0.00;;;;;-147.17;100.00;-15917.19;4990689;28;50557;-75
2023/01/05 02:19:10;;;;;;;;;1.33;1.33;;;;;-147.17;100.00;-15917.19;4989155;28;51285;-75
2023/01/05 02:22:03;;;;;;;;;1.33;1.00;;;;;-147.17;100.00;-15917.19;4965798;28;51081;-73
2023/01/05 02:24:43;;;;;;;;;0.67;0.00;;;;;-147.17;100.00;-15917.19;4981833;28;51154;-73
2023/01/05 02:27:48;;;;;;;;;2.00;1.00;;;;;-147.17;100.00;-15917.19;4977159;28;51064;-74
2023/01/05 02:30:38;;;;;;;;;0.00;0.00;;;;;-147.17;100.00;-15917.19;4992720;28;50882;-73
2023/01/05 02:33:15;;;;;;;;;0.00;0.00;;;;;-147.17;100.00;-15917.19;4987753;28;51667;-74
2023/01/05 02:36:01;;;;;;;;;3.00;1.00;;;;;-147.17;100.00;-15917.19;4987712;28;51024;-74
2023/01/05 02:38:48;;;;;;;;;1.67;1.67;;;;;-147.17;100.00;-15917.19;4982602;28;51087;-78
2023/01/05 02:41:45;;;;;;;;;0.67;0.00;;;;;-147.17;100.00;-15917.19;4982210;28;51102;-76
2023/01/05 02:44:15;;;;;;;;;1.00;0.00;;;;;-147.17;100.00;-15917.19;4979862;28;51034;-77
2023/01/05 02:46:41;;;;;;;;;0.67;0.00;;;;;-147.17;100.00;-15917.19;4979545;28;50848;-73
2023/01/05 02:49:07;;;;;;;;;0.00;0.00;;;;;-147.17;100.00;-15917.19;4978180;28;50480;-74
2023/01/05 02:51:37;;;;;;;;;2.00;1.00;;;;;-147.17;100.00;-15917.19;4985324;28;50726;-77
2023/01/05 02:54:17;;;;;;;;;2.00;1.67;;;;;-147.17;100.00;-15917.19;4970757;28;50805;-77
2023/01/05 02:57:45;;;;;;;;;0.00;0.00;;;;;-147.17;100.00;-15917.19;4977663;28;51167;-75
2023/01/05 03:00:14;;;;;;;;;0.00;0.00;;;;;-147.17;100.00;-15917.19;4945819;28;51242;-74
2023/01/05 03:02:44;;;;;;;;;0.00;0.00;;;;;-147.17;100.00;-15917.19;4983718;28;51286;-75
2023/01/05 03:05:15;;;;;;;;;1.00;0.00;;;;;-147.17;100.00;-15917.19;4980488;28;50977;-78
2023/01/05 03:07:42;;;;;;;;;0.00;0.00;;;;;-147.17;100.00;-15917.19;4978504;28;51042;-74
2023/01/05 03:13:59;;;;;;;;;0.67;0.00;;;;;-147.17;100.00;-15917.19;4974539;28;51227;-75
2023/01/05 03:16:00;;;;;;;;;1.00;1.00;;;;;-147.17;100.00;-15917.19;4969030;28;51364;-73
2023/01/05 03:18:27;;;;;;;;;1.00;0.00;;;;;-147.17;100.00;-15917.19;4979932;28;51079;-74
2023/01/05 03:20:54;;;;;;;;;1.00;0.00;;;;;-147.17;100.00;-15917.19;4977734;28;51036;-76
2023/01/05 03:37:36;;;;;;;;;1.00;1.00;;;;;-147.17;100.00;-15917.19;4975614;28;51253;-74
2023/01/05 03:40:06;;;;;;;;;0.00;0.00;;;;;-147.17;100.00;-15917.19;4979637;28;50964;-75
2023/01/05 03:42:31;;;;;;;;;2.00;1.00;;;;;-147.17;100.00;-15917.19;4967966;28;51195;-77
2023/01/05 03:44:57;;;;;;;;;0.00;0.00;;;;;-147.17;100.00;-15917.19;4997680;28;51172;-75
2023/01/05 03:47:23;;;;;;;;;0.33;0.33;;;;;-147.17;100.00;-15917.19;4970966;28;51729;-73
2023/01/05 03:49:50;;;;;;;;;0.67;0.33;;;;;-147.17;100.00;-15917.19;4993368;28;51157;-75
2023/01/05 03:52:15;;;;;;;;;3.67;2.00;;;;;-147.17;100.00;-15917.19;4968423;28;51309;-73
2023/01/05 03:54:40;;;;;;;;;2.33;2.33;;;;;-147.17;100.00;-15917.19;4986998;28;51266;-73
2023/01/05 03:57:06;;;;;;;;;1.00;1.00;;;;;-147.17;100.00;-15917.19;4977559;28;51102;-74
2023/01/05 03:59:31;;;;;;;;;3.67;2.33;;;;;-147.17;100.00;-15917.19;4981162;28;50945;-73
2023/01/05 04:01:56;;;;;;;;;2.00;2.00;;;;;-147.17;100.00;-15917.19;4992638;28;51246;-74
2023/01/05 04:04:22;;;;;;;;;1.00;1.00;;;;;-147.17;100.00;-15917.19;4986708;28;51143;-75
2023/01/05 04:06:47;;;;;;;;;0.00;0.00;;;;;-147.17;100.00;-15917.19;4987207;28;50938;-74
2023/01/05 04:09:12;;;;;;;;;0.33;0.33;;;;;-147.17;100.00;-15917.19;4995231;28;51212;-73
2023/01/05 04:11:38;;;;;;;;;0.00;0.00;;;;;-147.17;100.00;-15917.19;4988523;28;51409;-73
2023/01/05 04:14:03;;;;;;;;;2.00;1.00;;;;;-147.17;100.00;-15917.19;4979312;28;50912;-72
2023/01/05 04:16:28;;;;;;;;;2.33;2.00;;;;;-147.17;100.00;-15917.19;4980908;28;51119;-74
2023/01/05 04:18:54;;;;;;;;;0.00;0.00;;;;;-147.17;100.00;-15917.19;4984086;28;51133;-75
2023/01/05 04:21:19;;;;;;;;;1.00;0.00;;;;;-147.17;100.00;-15917.19;4992274;28;51372;-73
2023/01/05 04:23:44;;;;;;;;;1.00;0.33;;;;;-147.17;100.00;-15917.19;4982509;28;51101;-75
2023/01/05 04:26:10;;;;;;;;;1.00;0.00;;;;;-147.17;100.00;-15917.19;4979773;28;51071;-73
2023/01/05 04:28:36;;;;;;;;;0.00;0.00;;;;;-147.17;100.00;-15917.19;4978746;28;51055;-76
2023/01/05 04:31:01;;;;;;;;;0.00;0.00;;;;;-147.17;100.00;-15917.19;4987576;28;51026;-75
2023/01/05 04:33:26;;;;;;;;;1.00;0.00;;;;;-147.17;100.00;-15917.19;4989358;28;51844;-74
2023/01/05 04:35:52;;;;;;;;;0.00;0.00;;;;;-147.17;100.00;-15917.19;4985646;28;52090;-76
2023/01/05 04:38:17;;;;;;;;;0.00;0.00;;;;;-147.17;100.00;-15917.19;4984686;28;51057;-73
2023/01/05 04:40:50;;;;;;;;;0.00;0.00;;;;;-147.17;100.00;-15917.19;4992967;28;51094;-76
2023/01/05 04:43:16;;;;;;;;;1.00;0.00;;;;;-147.17;100.00;-15917.19;4990051;28;50965;-74
2023/01/05 04:45:41;;;;;;;;;1.00;0.00;;;;;-147.17;100.00;-15917.19;4987125;28;51108;-75
2023/01/05 04:48:06;;;;;;;;;0.00;0.00;;;;;-147.17;100.00;-15917.19;4991648;28;50932;-75
2023/01/05 04:50:32;;;;;;;;;0.00;0.00;;;;;-147.17;100.00;-15917.19;4984653;28;51110;-77
2023/01/05 04:52:57;;;;;;;;;0.67;0.00;;;;;-147.17;100.00;-15917.19;4985216;28;50647;-74
2023/01/05 04:55:23;;;;;;;;;0.00;0.00;;;;;-147.17;100.00;-15917.19;4978200;28;51827;-72
2023/01/05 04:57:48;;;;;;;;;1.00;1.00;;;;;-147.17;100.00;-15917.19;4988894;28;51101;-75
2023/01/05 05:00:14;;;;;;;;;0.00;0.00;;;;;-147.17;100.00;-15917.19;4990881;28;50951;-73
2023/01/05 05:02:39;;;;;;;;;1.00;0.00;;;;;-147.17;100.00;-15917.19;4988144;28;51043;-74
2023/01/05 05:05:04;;;;;;;;;0.00;0.00;;;;;-147.17;100.00;-15917.19;4981258;28;53602;-73
2023/01/05 05:07:30;;;;;;;;;0.33;0.33;;;;;-147.17;100.00;-15917.19;4984588;28;51114;-73
2023/01/05 05:09:55;;;;;;;;;1.00;1.00;;;;;-147.17;100.00;-15917.19;4987976;28;51035;-73
2023/01/05 05:12:21;;;;;;;;;2.00;1.00;;;;;-147.17;100.00;-15917.19;4987078;28;51245;-74
2023/01/05 05:14:47;;;;;;;;;1.00;0.67;;;;;-147.17;100.00;-15917.19;4981586;28;51147;-74
2023/01/05 05:17:13;;;;;;;;;0.00;0.00;;;;;-147.17;100.00;-15917.19;4973206;28;51113;-75
2023/01/05 05:19:38;;;;;;;;;0.00;0.00;;;;;-147.17;100.00;-15917.19;4990092;28;51028;-75
2023/01/05 05:22:03;;;;;;;;;0.00;0.00;;;;;-147.17;100.00;-15917.19;4969268;28;51080;-74
2023/01/05 05:24:29;;;;;;;;;1.00;0.00;;;;;-147.17;100.00;-15917.19;4980469;28;51784;-76
2023/01/05 05:26:56;;;;;;;;;1.67;1.00;;;;;-147.17;100.00;-15917.19;4979327;28;51131;-74
2023/01/05 05:29:22;;;;;;;;;0.00;0.00;;;;;-147.17;100.00;-15917.19;4977962;28;51098;-76
2023/01/05 05:31:47;;;;;;;;;0.33;0.00;;;;;-147.17;100.00;-15917.19;4989819;28;51409;-72
2023/01/05 05:34:12;;;;;;;;;0.00;0.00;;;;;-147.17;100.00;-15917.19;4975349;28;51329;-77
2023/01/05 05:36:38;;;;;;;;;0.00;0.00;;;;;-147.17;100.00;-15917.19;4977263;28;51058;-73
2023/01/05 05:39:03;;;;;;;;;0.33;0.00;;;;;-147.17;100.00;-15917.19;4993398;28;51035;-75
2023/01/05 05:41:29;;;;;;;;;0.33;0.00;;;;;-147.17;100.00;-15917.19;4984457;28;51230;-73
2023/01/05 05:43:59;;;;;;;;;1.00;0.67;;;;;-147.17;100.00;-15917.19;4983411;28;51213;-73
2023/01/05 05:46:25;;;;;;;;;0.33;0.00;;;;;-147.17;100.00;-15917.19;4987627;28;51026;-74
2023/01/05 05:48:50;;;;;;;;;0.00;0.00;;;;;-147.17;100.00;-15917.19;4988948;28;51171;-74
2023/01/05 05:51:15;;;;;;;;;1.00;0.00;;;;;-147.17;100.00;-15917.19;4989768;28;51259;-74
2023/01/05 05:53:41;;;;;;;;;1.00;1.00;;;;;-147.17;100.00;-15917.19;4988135;28;51261;-74
2023/01/05 05:56:06;;;;;;;;;1.00;1.00;;;;;-147.17;100.00;-15917.19;4986702;28;51019;-75
2023/01/05 05:58:32;;;;;;;;;0.00;0.00;;;;;-147.17;100.00;-15917.19;4985706;28;51109;-76
2023/01/05 06:00:58;;;;;;;;;0.67;0.67;;;;;-147.17;100.00;-15917.19;4992134;28;51099;-72
2023/01/05 06:03:23;;;;;;;;;2.00;0.00;;;;;-147.17;100.00;-15917.19;4973436;28;53296;-76
2023/01/05 06:05:49;;;;;;;;;0.00;0.00;;;;;-147.17;100.00;-15917.19;4991713;28;51054;-74
2023/01/05 06:08:14;;;;;;;;;0.00;0.00;;;;;-147.17;100.00;-15917.19;4986077;28;51053;-74
2023/01/05 06:10:40;;;;;;;;;2.00;1.00;;;;;-147.17;100.00;-15917.19;4975394;28;51030;-73
2023/01/05 06:13:06;;;;;;;;;0.00;0.00;;;;;-147.17;100.00;-15917.19;4987053;28;52864;-74
2023/01/05 06:15:31;;;;;;;;;1.00;0.00;;;;;-147.17;100.00;-15917.19;4988639;28;50865;-76
2023/01/05 06:17:56;;;;;;;;;0.00;0.00;;;;;-147.17;100.00;-15917.19;4982922;28;51256;-73
2023/01/05 06:20:22;;;;;;;;;1.67;0.00;;;;;-147.17;100.00;-15917.19;4987126;28;51012;-75
2023/01/05 06:22:47;;;;;;;;;0.00;0.00;;;;;-147.17;100.00;-15917.19;4992929;28;52013;-75
2023/01/05 06:25:12;;;;;;;;;2.00;0.33;;;;;-147.17;100.00;-15917.19;4981129;28;51196;-74
2023/01/05 06:27:38;;;;;;;;;0.33;0.33;;;;;-147.17;100.00;-15917.19;4988515;28;51179;-77
2023/01/05 06:30:04;;;;;;;;;0.00;0.00;;;;;-147.17;100.00;-15917.19;4989822;28;51079;-76
2023/01/05 06:32:29;;;;;;;;;0.67;0.00;;;;;-147.17;100.00;-15917.19;4986468;28;51156;-73
2023/01/05 06:34:54;;;;;;;;;0.00;0.00;;;;;-147.17;100.00;-15917.19;4991639;28;51154;-74
2023/01/05 06:37:20;;;;;;;;;0.67;0.67;;;;;-147.17;100.00;-15917.19;4973776;28;51092;-75
2023/01/05 06:39:45;;;;;;;;;0.00;0.00;;;;;-147.17;100.00;-15917.19;4990103;28;51273;-76
2023/01/05 06:42:11;;;;;;;;;1.00;0.00;;;;;-147.17;100.00;-15917.19;4970082;28;53254;-73
2023/01/05 06:44:36;;;;;;;;;1.00;0.00;;;;;-147.17;100.00;-15917.19;4983800;28;51192;-74
2023/01/05 06:47:02;;;;;;;;;1.00;0.00;;;;;-147.17;100.00;-15917.19;4989855;28;51487;-75
2023/01/05 06:49:27;;;;;;;;;0.67;0.67;;;;;-147.17;100.00;-15917.19;4971320;28;51269;-73
2023/01/05 06:51:53;;;;;;;;;0.00;0.00;;;;;-147.17;100.00;-15917.19;4983426;28;51230;-73
2023/01/05 06:54:18;;;;;;;;;0.00;0.00;;;;;-147.17;100.00;-15917.19;4986051;28;51106;-74
2023/01/05 06:56:43;;;;;;;;;1.00;0.00;;;;;-147.17;100.00;-15917.19;4988572;28;51064;-73
2023/01/05 06:59:11;;;;;;;;;0.33;0.00;;;;;-147.17;100.00;-15917.19;4991691;28;51336;-74
2023/01/05 07:01:36;;;;;;;;;0.33;0.00;;;;;-147.17;100.00;-15917.19;4981970;28;52723;-73
2023/01/05 07:04:02;;;;;;;;;1.00;1.00;;;;;-147.17;100.00;-15917.19;4983128;28;51235;-75
2023/01/05 07:06:27;;;;;;;;;0.33;0.00;;;;;-147.17;100.00;-15917.19;4985436;28;51323;-74
2023/01/05 07:08:53;;;;;;;;;0.00;0.00;;;;;-147.17;100.00;-15917.19;4983590;28;51427;-74
2023/01/05 07:11:18;;;;;;;;;0.00;0.00;;;;;-147.17;100.00;-15917.19;4981877;28;51937;-74
2023/01/05 07:13:48;;;;;;;;;0.00;0.00;;;;;-147.17;100.00;-15917.19;4989716;28;51007;-74
2023/01/05 07:16:13;;;;;;;;;2.00;2.00;;;;;-147.17;100.00;-15917.19;4985753;28;51122;-72
2023/01/05 07:18:39;;;;;;;;;1.00;1.00;;;;;-147.17;100.00;-15917.19;4990910;28;51035;-75
2023/01/05 07:21:05;;;;;;;;;1.33;1.00;;;;;-147.17;100.00;-15917.19;4981911;28;51722;-73
2023/01/05 07:23:42;;;;;;;;;1.00;1.00;;;;;-147.17;100.00;-15917.19;4991485;28;51100;-78
2023/01/05 07:26:08;;;;;;;;;1.00;0.00;;;;;-147.17;100.00;-15917.19;4985998;28;50480;-74
2023/01/05 07:28:35;;;;;;;;;1.67;1.00;;;;;-147.17;100.00;-15917.19;4989304;28;52098;-75
2023/01/05 07:31:01;;;;;;;;;0.00;0.00;;;;;-147.17;100.00;-15917.19;4980707;28;51248;-75
2023/01/05 07:33:27;;;;;;;;;2.00;1.00;;;;;-147.17;100.00;-15917.19;4957034;28;51280;-74
2023/01/05 07:35:52;;;;;;;;;1.00;0.00;;;;;-147.17;100.00;-15917.19;4988703;28;50990;-72
2023/01/05 07:38:18;;;;;;;;;1.33;1.33;;;;;-147.17;100.00;-15917.19;4987800;28;51192;-72
2023/01/05 07:40:43;;;;;;;;;1.00;1.00;;;;;-147.17;100.00;-15917.19;4993160;28;51888;-74
2023/01/05 07:43:09;;;;;;;;;3.00;2.00;;;;;-147.17;100.00;-15917.19;4995312;28;51074;-73
2023/01/05 07:45:34;;;;;;;;;1.67;1.67;;;;;-147.17;100.00;-15917.19;4984156;28;50874;-72
2023/01/05 07:48:01;;;;;;;;;2.00;1.00;;;;;-147.17;100.00;-15917.19;4994683;28;51160;-76
2023/01/05 07:50:27;;;;;;;;;2.00;2.00;;;;;-147.17;100.00;-15917.19;4976905;28;52118;-73
2023/01/05 07:52:52;;;;;;;;;3.33;2.33;;;;;-147.17;100.00;-15917.19;4988352;28;51311;-76
2023/01/05 07:55:18;;;;;;;;;1.00;1.00;;;;;-147.17;100.00;-15917.19;4984668;28;51098;-71
2023/01/05 07:57:45;;;;;;;;;1.00;1.00;;;;;-147.17;100.00;-15917.19;4982825;28;51074;-75
2023/01/05 08:00:13;;;;;;;;;2.33;1.67;;;;;-147.17;100.00;-15917.19;4992574;28;52283;-74
2023/01/05 08:02:38;;;;;;;;;1.67;1.67;;;;;-147.17;100.00;-15917.19;4984208;28;51316;-75
2023/01/05 08:05:04;;;;;;;;;2.33;1.67;;;;;-147.17;100.00;-15917.19;4992362;28;51104;-74
2023/01/05 08:07:29;;;;;;;;;2.67;2.00;;;;;-147.17;100.00;-15917.19;4976795;28;51246;-74
2023/01/05 08:13:58;;;;;;;;;1.67;1.00;;;;;-147.17;100.00;-15917.19;4978550;28;51171;-76
2023/01/05 08:15:23;;;;;;;;;2.00;2.00;;;;;-147.17;100.00;-15917.19;4988949;28;51043;-73
2023/01/05 08:17:49;;;;;;;;;1.67;1.33;;;;;-147.17;100.00;-15917.19;4987933;28;51217;-73
2023/01/05 08:20:14;;;;;;;;;1.00;1.00;;;;;-147.17;100.00;-15917.19;4991832;28;51240;-73
2023/01/05 08:22:40;;;;;;;;;2.67;2.67;;;;;-147.17;100.00;-15917.19;4987266;28;50958;-72
2023/01/05 08:25:05;;;;;;;;;1.33;1.00;;;;;-147.17;100.00;-15917.19;4976889;28;51297;-74
2023/01/05 08:27:32;;;;;;;;;2.00;1.00;;;;;-147.17;100.00;-15917.19;4985900;28;51165;-74
2023/01/05 08:29:57;;;;;;;;;1.00;1.00;;;;;-147.17;100.00;-15917.19;4982492;28;51292;-74
2023/01/05 08:32:23;;;;;;;;;1.00;1.00;;;;;-147.17;100.00;-15917.19;4978137;28;51147;-73
2023/01/05 08:34:48;;;;;;;;;5.00;3.00;;;;;-147.17;100.00;-15917.19;4982959;28;50984;-74
2023/01/05 08:37:14;;;;;;;;;2.00;2.00;;;;;-147.17;100.00;-15917.19;4984948;28;51569;-71
2023/01/05 08:39:39;;;;;;;;;1.00;1.00;;;;;-147.17;100.00;-15917.19;4980231;28;51153;-72
2023/01/05 08:42:04;;;;;;;;;8.33;7.00;;;;;-147.17;100.00;-15917.19;4975088;28;51117;-72
2023/01/05 08:44:30;;;;;;;;;2.00;2.00;;;;;-147.17;100.00;-15917.19;4973970;28;51235;-71
2023/01/05 08:46:55;;;;;;;;;2.00;2.00;;;;;-147.17;100.00;-15917.19;4989426;28;51194;-72
2023/01/05 08:49:21;;;;;;;;;3.00;3.00;;;;;-147.17;100.00;-15917.19;4995740;28;52634;-71
2023/01/05 08:51:46;;;;;;;;;3.33;3.33;;;;;-147.17;100.00;-15917.19;4994778;28;51136;-73
2023/01/05 08:54:11;;;;;;;;;3.00;3.00;;;;;-147.17;100.00;-15917.19;4985634;28;51076;-72
2023/01/05 08:56:37;;;;;;;;;3.00;3.00;;;;;-147.17;100.00;-15917.19;4961988;28;51273;-71
2023/01/05 08:59:03;;;;;;;;;3.67;2.67;;;;;-147.17;100.00;-15917.19;4995436;28;51007;-73
2023/01/05 09:01:29;;;;;;;;;4.00;4.00;;;;;-147.17;100.00;-15917.19;4993456;28;51042;-70
2023/01/05 09:03:55;;;;;;;;;2.00;2.00;;;;;-147.17;100.00;-15917.19;4977971;28;51089;-71
2023/01/05 09:06:20;;;;;;;;;1.00;1.00;;;;;-147.17;100.00;-15917.19;4983769;28;51276;-70
2023/01/05 09:08:45;;;;;;;;;2.00;2.00;;;;;-147.17;100.00;-15917.19;4982005;28;51069;-70
2023/01/05 09:11:13;;;;;;;;;1.00;1.00;;;;;-147.17;100.00;-15917.19;4986962;28;51143;-71
2023/01/05 09:13:39;;;;;;;;;1.33;1.33;;;;;-147.17;100.00;-15917.19;4980719;28;51190;-70
2023/01/05 09:16:12;;;;;;;;;2.00;2.00;;;;;-147.17;100.00;-15917.19;4971819;28;51409;-73
2023/01/05 09:18:39;;;;;;;;;3.00;1.33;;;;;-147.17;100.00;-15917.19;4984591;28;52475;-72
2023/01/05 09:21:06;;;;;;;;;3.00;3.00;;;;;-147.17;100.00;-15917.19;4985272;28;51315;-70
2023/01/05 09:23:34;;;;;;;;;2.00;2.00;;;;;-147.17;100.00;-15917.19;4974114;28;51203;-72
2023/01/05 09:26:01;;;;;;;;;2.00;1.00;;;;;-147.17;100.00;-15917.19;4985816;28;50925;-70
2023/01/05 09:28:27;;;;;;;;;2.00;2.00;;;;;-147.17;100.00;-15917.19;4982518;28;51829;-70
2023/01/05 09:30:52;;;;;;;;;1.67;1.67;;;;;-147.17;100.00;-15917.19;4985282;28;51215;-70
2023/01/05 09:33:18;;;;;;;;;2.67;2.67;;;;;-147.17;100.00;-15917.19;4988574;28;50936;-71
2023/01/05 09:35:43;;;;;;;;;2.67;2.00;;;;;-147.17;100.00;-15917.19;4985512;28;50942;-70
2023/01/05 09:38:09;;;;;;;;;3.00;2.67;;;;;-147.17;100.00;-15917.19;4951645;28;53682;-70
2023/01/05 09:40:41;;;;;;;;;2.00;2.00;;;;;-147.17;100.00;-15917.19;4978921;28;50972;-72
2023/01/05 09:43:17;;;;;;;;;3.00;2.00;;;;;-147.17;100.00;-15917.19;4975889;28;50982;-73
2023/01/05 09:45:43;;;;;;;;;3.00;2.00;;;;;-147.17;100.00;-15917.19;4992218;28;50849;-71
2023/01/05 09:48:13;;;;;;;;;3.33;3.00;;;;;-147.17;100.00;-15917.19;4993515;28;51618;-72
2023/01/05 09:50:38;;;;;;;;;2.00;2.00;;;;;-147.17;100.00;-15917.19;4984780;28;50997;-70
2023/01/05 09:53:04;;;;;;;;;4.00;4.00;;;;;-147.17;100.00;-15917.19;4989191;28;51161;-71
2023/01/05 09:55:33;;;;;;;;;4.67;4.33;;;;;-147.17;100.00;-15917.19;4980225;28;51289;-69
2023/01/05 09:58:05;;;;;;;;;3.00;3.00;;;;;-147.17;100.00;-15917.19;4992916;28;51951;-71
2023/01/05 10:00:32;;;;;;;;;4.00;4.00;;;;;-147.17;100.00;-15917.19;4986234;28;51154;-71
2023/01/05 10:03:18;;;;;;;;;3.00;3.00;;;;;-147.17;100.00;-15917.19;4987609;28;51278;-70
2023/01/05 10:05:45;;;;;;;;;6.67;4.67;;;;;-147.17;100.00;-15917.19;4983923;28;51021;-71
2023/01/05 10:08:34;;;;;;;;;6.67;6.67;;;;;-147.17;100.00;-15917.19;4985034;28;51095;-69
2023/01/05 10:14:13;;;;;;;;;6.00;5.67;;;;;-147.17;100.00;-15917.19;4985519;28;51128;-72
2023/01/05 10:16:43;;;;;;;;;3.00;2.00;;;;;-147.17;100.00;-15917.19;4990672;28;50896;-71
2023/01/05 10:19:17;;;;;;;;;3.00;3.00;;;;;-147.17;100.00;-15917.19;4988932;28;51108;-72
2023/01/05 10:22:09;;;;;;;;;4.00;4.00;;;;;-147.17;100.00;-15917.19;4987732;28;50956;-73
2023/01/05 10:24:46;;;;;;;;;9.00;7.33;;;;;-147.17;100.00;-15917.19;4991397;28;51142;-70
2023/01/05 10:27:28;;;;;;;;;2.33;2.33;;;;;-147.17;100.00;-15917.19;4980264;28;51231;-70
2023/01/05 10:30:22;;;;;;;;;3.00;3.00;;;;;-147.17;100.00;-15917.19;4989918;28;52037;-71
2023/01/05 10:33:02;;;;;;;;;2.67;2.67;;;;;-147.17;100.00;-15917.19;4979658;28;51107;-70
2023/01/05 10:35:55;;;;;;;;;3.67;3.00;;;;;-147.17;100.00;-15917.19;4984777;28;51047;-72
2023/01/05 10:38:32;;;;;;;;;3.00;3.00;;;;;-147.17;100.00;-15917.19;4980557;28;51367;-73
2023/01/05 10:41:35;;;;;;;;;2.00;2.00;;;;;-147.17;100.00;-15917.19;4977036;28;51467;-72
2023/01/05 10:44:29;;;;;;;;;2.00;2.00;;;;;-147.17;100.00;-15917.19;4982063;28;50801;-70
2023/01/05 10:46:55;;;;;;;;;3.00;3.00;;;;;-147.17;100.00;-15917.19;4976187;28;51152;-71
2023/01/05 10:49:28;;;;;;;;;3.00;2.00;;;;;-147.17;100.00;-15917.19;4977295;28;51373;-71
2023/01/05 10:51:57;;;;;;;;;3.00;3.00;;;;;-147.17;100.00;-15917.19;4990493;28;51016;-70
2023/01/05 10:54:36;;;;;;;;;2.33;2.00;;;;;-147.17;100.00;-15917.19;4990703;28;51137;-69
2023/01/05 10:57:31;;;;;;;;;2.00;2.00;;;;;-147.17;100.00;-15917.19;4979377;28;51066;-69
2023/01/05 11:00:07;;;;;;;;;4.00;4.00;;;;;-147.17;100.00;-15917.19;4988414;28;51329;-75
2023/01/05 11:02:46;;;;;;;;;3.00;3.00;;;;;-147.17;100.00;-15917.19;4976356;28;51097;-73
2023/01/05 11:05:44;;;;;;;;;3.00;3.00;;;;;-147.17;100.00;-15917.19;4980792;28;51095;-75
2023/01/05 11:08:16;;;;;;;;;1.00;1.00;;;;;-147.17;100.00;-15917.19;4977012;28;51030;-76
2023/01/05 11:10:53;;;;;;;;;7.00;6.33;;;;;-147.17;100.00;-15917.19;4992036;28;50960;-76
2023/01/05 11:13:29;;;;;;;;;6.00;6.00;;;;;-147.17;100.00;-15917.19;4989070;28;51943;-75
2023/01/05 11:16:19;;;;;;;;;4.67;4.33;;;;;-147.17;100.00;-15917.19;4974727;28;51024;-76
2023/01/05 11:18:59;;;;;;;;;6.00;5.00;;;;;-147.17;100.00;-15917.19;4992466;28;50984;-77
2023/01/05 11:21:30;;;;;;;;;5.00;4.00;;;;;-147.17;100.00;-15917.19;4974599;28;51057;-76
2023/01/05 11:23:57;;;;;;;;;4.00;2.00;;;;;-147.17;100.00;-15917.19;4992064;28;51255;-74
2023/01/05 11:26:36;;;;;;;;;3.00;3.00;;;;;-147.17;100.00;-15917.19;4992566;28;50897;-76
2023/01/05 11:29:08;;;;;;;;;3.00;3.00;;;;;-147.17;100.00;-15917.19;4989256;28;51289;-76
2023/01/05 11:31:43;;;;;;;;;3.33;3.33;;;;;-147.17;100.00;-15917.19;4974239;28;51141;-77
2023/01/05 11:34:33;;;;;;;;;5.00;4.00;;;;;-147.17;100.00;-15917.19;4992624;28;50919;-75
2023/01/05 11:37:01;;;;;;;;;3.33;2.67;;;;;-147.17;100.00;-15917.19;4992246;28;51046;-79
2023/01/05 11:39:28;;;;;;;;;6.33;6.33;;;;;-147.17;100.00;-15917.19;4974600;28;51159;-74
2023/01/05 11:42:15;;;;;;;;;6.00;6.00;;;;;-147.17;100.00;-15917.19;4988605;28;51305;-79
2023/01/05 11:44:53;;;;;;;;;7.00;7.00;;;;;-147.17;100.00;-15917.19;4967330;28;53121;-75
2023/01/05 11:47:27;;;;;;;;;6.67;6.00;;;;;-147.17;100.00;-15917.19;4991638;28;51065;-74